sensor_id;sensor_type;location;lat;lon;timestamp;temperature;humidity
56066;DHT22;75952;50.922;4.514;2024-01-27T00:01:49;2.80;86.70
56066;DHT22;75952;50.922;4.514;2024-01-27T00:04:19;2.90;86.10
56066;DHT22;75952;50.922;4.514;2024-01-27T00:06:45;2.80;85.20
56066;DHT22;75952;50.922;4.514;2024-01-27T00:09:11;2.60;86.70
56066;DHT22;75952;50.922;4.514;2024-01-27T00:11:41;2.50;87.10
56066;DHT22;75952;50.922;4.514;2024-01-27T00:14:06;2.50;87.70
56066;DHT22;75952;50.922;4.514;2024-01-27T00:16:32;2.50;87.90
56066;DHT22;75952;50.922;4.514;2024-01-27T00:18:58;2.50;87.70
56066;DHT22;75952;50.922;4.514;2024-01-27T00:21:23;2.50;87.90
56066;DHT22;75952;50.922;4.514;2024-01-27T00:23:49;2.50;87.50
56066;DHT22;75952;50.922;4.514;2024-01-27T00:26:17;2.40;87.40
56066;DHT22;75952;50.922;4.514;2024-01-27T00:28:42;2.40;87.10
56066;DHT22;75952;50.922;4.514;2024-01-27T00:31:08;2.60;86.40
56066;DHT22;75952;50.922;4.514;2024-01-27T00:33:33;2.40;86.80
56066;DHT22;75952;50.922;4.514;2024-01-27T00:36:03;2.50;86.30
56066;DHT22;75952;50.922;4.514;2024-01-27T00:38:29;2.40;86.80
56066;DHT22;75952;50.922;4.514;2024-01-27T00:40:57;2.20;88.00
56066;DHT22;75952;50.922;4.514;2024-01-27T00:43:23;2.10;88.40
56066;DHT22;75952;50.922;4.514;2024-01-27T00:45:51;2.10;88.70
56066;DHT22;75952;50.922;4.514;2024-01-27T00:48:19;2.10;88.60
56066;DHT22;75952;50.922;4.514;2024-01-27T00:50:45;2.00;88.60
56066;DHT22;75952;50.922;4.514;2024-01-27T00:53:11;2.00;88.60
56066;DHT22;75952;50.922;4.514;2024-01-27T00:55:36;2.00;88.20
56066;DHT22;75952;50.922;4.514;2024-01-27T00:58:02;2.20;86.90
56066;DHT22;75952;50.922;4.514;2024-01-27T01:00:28;2.10;87.90
56066;DHT22;75952;50.922;4.514;2024-01-27T01:02:53;2.10;88.00
56066;DHT22;75952;50.922;4.514;2024-01-27T01:05:19;2.00;88.40
56066;DHT22;75952;50.922;4.514;2024-01-27T01:07:44;2.00;88.90
56066;DHT22;75952;50.922;4.514;2024-01-27T01:10:10;2.00;88.90
56066;DHT22;75952;50.922;4.514;2024-01-27T01:12:36;1.90;88.50
56066;DHT22;75952;50.922;4.514;2024-01-27T01:15:01;2.00;88.80
56066;DHT22;75952;50.922;4.514;2024-01-27T01:17:29;1.90;89.60
56066;DHT22;75952;50.922;4.514;2024-01-27T01:20:02;1.90;90.00
56066;DHT22;75952;50.922;4.514;2024-01-27T01:22:30;1.90;90.20
56066;DHT22;75952;50.922;4.514;2024-01-27T01:24:56;2.00;90.20
56066;DHT22;75952;50.922;4.514;2024-01-27T01:27:21;2.00;89.80
56066;DHT22;75952;50.922;4.514;2024-01-27T01:29:47;2.00;89.10
56066;DHT22;75952;50.922;4.514;2024-01-27T01:32:13;1.90;89.30
56066;DHT22;75952;50.922;4.514;2024-01-27T01:34:38;2.00;90.00
56066;DHT22;75952;50.922;4.514;2024-01-27T01:37:04;2.00;89.10
56066;DHT22;75952;50.922;4.514;2024-01-27T01:39:30;2.00;89.70
56066;DHT22;75952;50.922;4.514;2024-01-27T01:41:58;2.00;90.50
56066;DHT22;75952;50.922;4.514;2024-01-27T01:44:30;2.00;90.20
56066;DHT22;75952;50.922;4.514;2024-01-27T01:46:56;2.10;90.30
56066;DHT22;75952;50.922;4.514;2024-01-27T01:49:22;2.10;90.30
56066;DHT22;75952;50.922;4.514;2024-01-27T01:51:48;2.10;89.20
56066;DHT22;75952;50.922;4.514;2024-01-27T01:54:14;2.10;89.40
56066;DHT22;75952;50.922;4.514;2024-01-27T01:56:39;2.10;89.50
56066;DHT22;75952;50.922;4.514;2024-01-27T01:59:05;2.00;89.80
56066;DHT22;75952;50.922;4.514;2024-01-27T02:01:31;2.00;90.00
56066;DHT22;75952;50.922;4.514;2024-01-27T02:03:57;2.00;89.80
56066;DHT22;75952;50.922;4.514;2024-01-27T02:06:23;2.00;89.60
56066;DHT22;75952;50.922;4.514;2024-01-27T02:08:49;2.00;88.80
56066;DHT22;75952;50.922;4.514;2024-01-27T02:11:15;1.90;88.60
56066;DHT22;75952;50.922;4.514;2024-01-27T02:13:43;1.80;88.80
56066;DHT22;75952;50.922;4.514;2024-01-27T02:16:11;1.80;89.00
56066;DHT22;75952;50.922;4.514;2024-01-27T02:18:37;1.70;89.70
56066;DHT22;75952;50.922;4.514;2024-01-27T02:21:02;1.70;89.90
56066;DHT22;75952;50.922;4.514;2024-01-27T02:23:30;1.50;89.60
56066;DHT22;75952;50.922;4.514;2024-01-27T02:25:56;1.70;89.50
56066;DHT22;75952;50.922;4.514;2024-01-27T02:28:24;1.60;88.90
56066;DHT22;75952;50.922;4.514;2024-01-27T02:30:49;1.50;89.80
56066;DHT22;75952;50.922;4.514;2024-01-27T02:33:15;1.50;89.50
56066;DHT22;75952;50.922;4.514;2024-01-27T02:35:41;1.30;88.80
56066;DHT22;75952;50.922;4.514;2024-01-27T02:38:09;1.20;90.00
56066;DHT22;75952;50.922;4.514;2024-01-27T02:40:36;1.10;90.30
56066;DHT22;75952;50.922;4.514;2024-01-27T02:43:02;1.20;90.00
56066;DHT22;75952;50.922;4.514;2024-01-27T02:45:28;1.30;89.30
56066;DHT22;75952;50.922;4.514;2024-01-27T02:47:53;1.20;89.90
56066;DHT22;75952;50.922;4.514;2024-01-27T02:50:19;1.10;90.10
56066;DHT22;75952;50.922;4.514;2024-01-27T02:52:49;1.10;89.60
56066;DHT22;75952;50.922;4.514;2024-01-27T02:55:17;0.90;90.60
56066;DHT22;75952;50.922;4.514;2024-01-27T02:57:43;0.90;90.70
56066;DHT22;75952;50.922;4.514;2024-01-27T03:00:09;0.90;90.30
56066;DHT22;75952;50.922;4.514;2024-01-27T03:02:35;0.90;90.40
56066;DHT22;75952;50.922;4.514;2024-01-27T03:05:03;0.90;90.60
56066;DHT22;75952;50.922;4.514;2024-01-27T03:07:31;1.10;90.20
56066;DHT22;75952;50.922;4.514;2024-01-27T03:09:57;1.10;89.90
56066;DHT22;75952;50.922;4.514;2024-01-27T03:12:23;0.90;90.30
56066;DHT22;75952;50.922;4.514;2024-01-27T03:14:48;0.90;90.40
56066;DHT22;75952;50.922;4.514;2024-01-27T03:17:16;0.90;90.40
56066;DHT22;75952;50.922;4.514;2024-01-27T03:19:41;0.90;90.60
56066;DHT22;75952;50.922;4.514;2024-01-27T03:22:07;0.90;90.50
56066;DHT22;75952;50.922;4.514;2024-01-27T03:24:33;0.90;90.50
56066;DHT22;75952;50.922;4.514;2024-01-27T03:27:01;0.90;90.70
56066;DHT22;75952;50.922;4.514;2024-01-27T03:29:26;0.90;90.60
56066;DHT22;75952;50.922;4.514;2024-01-27T03:31:56;1.00;90.20
56066;DHT22;75952;50.922;4.514;2024-01-27T03:34:21;1.10;89.10
56066;DHT22;75952;50.922;4.514;2024-01-27T03:36:52;0.90;89.60
56066;DHT22;75952;50.922;4.514;2024-01-27T03:39:18;1.00;89.80
56066;DHT22;75952;50.922;4.514;2024-01-27T03:41:44;0.90;89.60
56066;DHT22;75952;50.922;4.514;2024-01-27T03:44:09;0.90;90.20
56066;DHT22;75952;50.922;4.514;2024-01-27T03:46:35;0.80;90.60
56066;DHT22;75952;50.922;4.514;2024-01-27T03:49:02;0.90;89.90
56066;DHT22;75952;50.922;4.514;2024-01-27T03:51:31;0.80;90.50
56066;DHT22;75952;50.922;4.514;2024-01-27T03:53:56;0.80;90.30
56066;DHT22;75952;50.922;4.514;2024-01-27T03:56:26;0.60;90.50
56066;DHT22;75952;50.922;4.514;2024-01-27T03:58:52;0.60;90.70
56066;DHT22;75952;50.922;4.514;2024-01-27T04:01:20;0.60;91.00
56066;DHT22;75952;50.922;4.514;2024-01-27T04:03:45;0.50;91.20
56066;DHT22;75952;50.922;4.514;2024-01-27T04:06:11;0.40;91.20
56066;DHT22;75952;50.922;4.514;2024-01-27T04:08:37;0.50;91.30
56066;DHT22;75952;50.922;4.514;2024-01-27T04:11:09;0.50;91.30
56066;DHT22;75952;50.922;4.514;2024-01-27T04:13:37;0.70;90.60
56066;DHT22;75952;50.922;4.514;2024-01-27T04:16:03;0.60;90.70
56066;DHT22;75952;50.922;4.514;2024-01-27T04:18:29;0.50;90.30
56066;DHT22;75952;50.922;4.514;2024-01-27T04:20:54;0.40;90.90
56066;DHT22;75952;50.922;4.514;2024-01-27T04:23:20;0.30;91.40
56066;DHT22;75952;50.922;4.514;2024-01-27T04:25:45;0.30;91.70
56066;DHT22;75952;50.922;4.514;2024-01-27T04:28:14;0.30;91.70
56066;DHT22;75952;50.922;4.514;2024-01-27T04:30:39;0.20;91.70
56066;DHT22;75952;50.922;4.514;2024-01-27T04:33:05;0.20;91.80
56066;DHT22;75952;50.922;4.514;2024-01-27T04:35:32;0.30;91.60
56066;DHT22;75952;50.922;4.514;2024-01-27T04:38:00;0.20;91.60
56066;DHT22;75952;50.922;4.514;2024-01-27T04:40:26;0.20;91.60
56066;DHT22;75952;50.922;4.514;2024-01-27T04:42:52;0.40;91.10
56066;DHT22;75952;50.922;4.514;2024-01-27T04:45:19;0.40;90.70
56066;DHT22;75952;50.922;4.514;2024-01-27T04:47:45;0.40;90.70
56066;DHT22;75952;50.922;4.514;2024-01-27T04:50:13;0.40;90.70
56066;DHT22;75952;50.922;4.514;2024-01-27T04:52:39;0.50;90.60
56066;DHT22;75952;50.922;4.514;2024-01-27T04:55:06;0.40;90.70
56066;DHT22;75952;50.922;4.514;2024-01-27T04:57:32;0.50;89.90
56066;DHT22;75952;50.922;4.514;2024-01-27T04:59:58;0.20;90.40
56066;DHT22;75952;50.922;4.514;2024-01-27T05:02:23;0.10;91.30
56066;DHT22;75952;50.922;4.514;2024-01-27T05:04:49;0.20;91.00
56066;DHT22;75952;50.922;4.514;2024-01-27T05:07:17;0.20;91.20
56066;DHT22;75952;50.922;4.514;2024-01-27T05:09:42;0.20;90.70
56066;DHT22;75952;50.922;4.514;2024-01-27T05:12:10;0.20;90.80
56066;DHT22;75952;50.922;4.514;2024-01-27T05:14:36;0.30;90.80
56066;DHT22;75952;50.922;4.514;2024-01-27T05:17:02;0.30;90.80
56066;DHT22;75952;50.922;4.514;2024-01-27T05:19:27;0.10;91.30
56066;DHT22;75952;50.922;4.514;2024-01-27T05:21:57;0.10;91.20
56066;DHT22;75952;50.922;4.514;2024-01-27T05:24:23;0.10;91.40
56066;DHT22;75952;50.922;4.514;2024-01-27T05:26:50;0.10;91.00
56066;DHT22;75952;50.922;4.514;2024-01-27T05:29:16;0.10;91.00
56066;DHT22;75952;50.922;4.514;2024-01-27T05:31:44;0.00;91.10
56066;DHT22;75952;50.922;4.514;2024-01-27T05:34:13;0.00;91.30
56066;DHT22;75952;50.922;4.514;2024-01-27T05:36:39;0.00;91.20
56066;DHT22;75952;50.922;4.514;2024-01-27T05:39:04;-0.20;91.50
56066;DHT22;75952;50.922;4.514;2024-01-27T05:41:31;0.00;91.60
56066;DHT22;75952;50.922;4.514;2024-01-27T05:43:56;0.00;91.50
56066;DHT22;75952;50.922;4.514;2024-01-27T05:46:26;0.00;91.40
56066;DHT22;75952;50.922;4.514;2024-01-27T05:48:52;0.10;91.10
56066;DHT22;75952;50.922;4.514;2024-01-27T05:51:26;0.00;91.20
56066;DHT22;75952;50.922;4.514;2024-01-27T05:53:52;0.00;91.40
56066;DHT22;75952;50.922;4.514;2024-01-27T05:56:20;0.20;90.80
56066;DHT22;75952;50.922;4.514;2024-01-27T05:58:46;0.30;90.20
56066;DHT22;75952;50.922;4.514;2024-01-27T06:01:14;0.20;90.30
56066;DHT22;75952;50.922;4.514;2024-01-27T06:03:43;0.00;90.90
56066;DHT22;75952;50.922;4.514;2024-01-27T06:06:09;-0.10;91.20
56066;DHT22;75952;50.922;4.514;2024-01-27T06:08:37;-0.10;91.30
56066;DHT22;75952;50.922;4.514;2024-01-27T06:11:03;-0.20;91.50
56066;DHT22;75952;50.922;4.514;2024-01-27T06:13:29;-0.10;91.60
56066;DHT22;75952;50.922;4.514;2024-01-27T06:16:00;-0.30;91.60
56066;DHT22;75952;50.922;4.514;2024-01-27T06:18:28;-0.30;91.80
56066;DHT22;75952;50.922;4.514;2024-01-27T06:20:54;-0.20;91.60
56066;DHT22;75952;50.922;4.514;2024-01-27T06:23:19;-0.10;91.20
56066;DHT22;75952;50.922;4.514;2024-01-27T06:25:45;-0.10;91.20
56066;DHT22;75952;50.922;4.514;2024-01-27T06:28:13;0.00;91.00
56066;DHT22;75952;50.922;4.514;2024-01-27T06:30:38;-0.20;90.90
56066;DHT22;75952;50.922;4.514;2024-01-27T06:33:04;-0.10;91.10
56066;DHT22;75952;50.922;4.514;2024-01-27T06:35:32;-0.30;91.70
56066;DHT22;75952;50.922;4.514;2024-01-27T06:37:59;-0.30;92.00
56066;DHT22;75952;50.922;4.514;2024-01-27T06:40:24;-0.30;91.60
56066;DHT22;75952;50.922;4.514;2024-01-27T06:42:50;-0.30;91.60
56066;DHT22;75952;50.922;4.514;2024-01-27T06:45:16;-0.20;91.70
56066;DHT22;75952;50.922;4.514;2024-01-27T06:47:42;-0.20;91.60
56066;DHT22;75952;50.922;4.514;2024-01-27T06:50:08;-0.10;91.50
56066;DHT22;75952;50.922;4.514;2024-01-27T06:52:34;-0.10;91.50
56066;DHT22;75952;50.922;4.514;2024-01-27T06:55:01;-0.10;91.70
56066;DHT22;75952;50.922;4.514;2024-01-27T06:57:30;-0.20;92.30
56066;DHT22;75952;50.922;4.514;2024-01-27T06:59:57;-0.20;92.30
56066;DHT22;75952;50.922;4.514;2024-01-27T07:02:27;-0.10;92.00
56066;DHT22;75952;50.922;4.514;2024-01-27T07:04:54;-0.10;91.80
56066;DHT22;75952;50.922;4.514;2024-01-27T07:07:25;-0.10;92.00
56066;DHT22;75952;50.922;4.514;2024-01-27T07:09:55;-0.10;91.80
56066;DHT22;75952;50.922;4.514;2024-01-27T07:12:20;-0.10;91.40
56066;DHT22;75952;50.922;4.514;2024-01-27T07:14:48;-0.10;91.40
56066;DHT22;75952;50.922;4.514;2024-01-27T07:17:14;0.00;91.40
56066;DHT22;75952;50.922;4.514;2024-01-27T07:19:42;0.10;91.20
56066;DHT22;75952;50.922;4.514;2024-01-27T07:22:08;0.00;90.90
56066;DHT22;75952;50.922;4.514;2024-01-27T07:24:33;0.00;91.10
56066;DHT22;75952;50.922;4.514;2024-01-27T07:27:01;-0.10;91.00
56066;DHT22;75952;50.922;4.514;2024-01-27T07:29:29;-0.20;91.50
56066;DHT22;75952;50.922;4.514;2024-01-27T07:31:58;-0.20;91.50
56066;DHT22;75952;50.922;4.514;2024-01-27T07:34:28;-0.30;92.00
56066;DHT22;75952;50.922;4.514;2024-01-27T07:36:56;-0.10;91.50
56066;DHT22;75952;50.922;4.514;2024-01-27T07:39:23;-0.20;91.60
56066;DHT22;75952;50.922;4.514;2024-01-27T07:41:48;-0.20;92.50
56066;DHT22;75952;50.922;4.514;2024-01-27T07:44:18;-0.10;92.80
56066;DHT22;75952;50.922;4.514;2024-01-27T07:46:46;0.00;91.80
56066;DHT22;75952;50.922;4.514;2024-01-27T07:49:12;0.10;91.20
56066;DHT22;75952;50.922;4.514;2024-01-27T07:51:38;-0.10;91.50
56066;DHT22;75952;50.922;4.514;2024-01-27T07:54:06;-0.10;91.80
56066;DHT22;75952;50.922;4.514;2024-01-27T07:56:32;-0.20;92.30
56066;DHT22;75952;50.922;4.514;2024-01-27T07:59:00;-0.20;92.00
56066;DHT22;75952;50.922;4.514;2024-01-27T08:01:28;-0.10;92.20
56066;DHT22;75952;50.922;4.514;2024-01-27T08:03:53;-0.10;92.30
56066;DHT22;75952;50.922;4.514;2024-01-27T08:06:30;0.10;92.30
56066;DHT22;75952;50.922;4.514;2024-01-27T08:08:58;0.10;91.90
56066;DHT22;75952;50.922;4.514;2024-01-27T08:11:24;0.20;92.00
56066;DHT22;75952;50.922;4.514;2024-01-27T08:13:55;0.30;92.00
56066;DHT22;75952;50.922;4.514;2024-01-27T08:16:21;0.30;92.10
56066;DHT22;75952;50.922;4.514;2024-01-27T08:18:49;0.60;92.00
56066;DHT22;75952;50.922;4.514;2024-01-27T08:21:14;0.60;91.80
56066;DHT22;75952;50.922;4.514;2024-01-27T08:23:41;0.70;91.80
56066;DHT22;75952;50.922;4.514;2024-01-27T08:26:06;0.90;91.60
56066;DHT22;75952;50.922;4.514;2024-01-27T08:28:34;0.90;91.40
56066;DHT22;75952;50.922;4.514;2024-01-27T08:31:00;0.90;92.00
56066;DHT22;75952;50.922;4.514;2024-01-27T08:33:27;1.00;93.10
56066;DHT22;75952;50.922;4.514;2024-01-27T08:35:52;1.10;92.50
56066;DHT22;75952;50.922;4.514;2024-01-27T08:38:21;1.20;92.10
56066;DHT22;75952;50.922;4.514;2024-01-27T08:40:49;1.10;92.20
56066;DHT22;75952;50.922;4.514;2024-01-27T08:43:14;1.30;92.20
56066;DHT22;75952;50.922;4.514;2024-01-27T08:45:42;1.40;92.00
56066;DHT22;75952;50.922;4.514;2024-01-27T08:48:08;1.50;91.80
56066;DHT22;75952;50.922;4.514;2024-01-27T08:50:36;1.60;91.90
56066;DHT22;75952;50.922;4.514;2024-01-27T08:53:05;1.70;91.90
56066;DHT22;75952;50.922;4.514;2024-01-27T08:55:31;1.80;91.70
56066;DHT22;75952;50.922;4.514;2024-01-27T08:57:57;2.00;91.50
56066;DHT22;75952;50.922;4.514;2024-01-27T09:00:23;2.10;91.30
56066;DHT22;75952;50.922;4.514;2024-01-27T09:02:48;2.20;91.30
56066;DHT22;75952;50.922;4.514;2024-01-27T09:05:14;2.20;91.70
56066;DHT22;75952;50.922;4.514;2024-01-27T09:07:40;2.30;91.60
56066;DHT22;75952;50.922;4.514;2024-01-27T09:10:06;2.40;91.20
56066;DHT22;75952;50.922;4.514;2024-01-27T09:12:39;2.50;91.40
56066;DHT22;75952;50.922;4.514;2024-01-27T09:15:05;2.50;91.90
56066;DHT22;75952;50.922;4.514;2024-01-27T09:17:32;2.70;91.80
56066;DHT22;75952;50.922;4.514;2024-01-27T09:19:58;2.80;91.70
56066;DHT22;75952;50.922;4.514;2024-01-27T09:22:28;2.90;91.30
56066;DHT22;75952;50.922;4.514;2024-01-27T09:24:53;3.00;91.30
56066;DHT22;75952;50.922;4.514;2024-01-27T09:27:20;3.10;91.50
56066;DHT22;75952;50.922;4.514;2024-01-27T09:29:46;3.20;91.40
56066;DHT22;75952;50.922;4.514;2024-01-27T09:32:16;3.30;91.00
56066;DHT22;75952;50.922;4.514;2024-01-27T09:34:42;3.40;90.80
56066;DHT22;75952;50.922;4.514;2024-01-27T09:37:08;3.40;90.60
56066;DHT22;75952;50.922;4.514;2024-01-27T09:39:36;3.50;90.90
56066;DHT22;75952;50.922;4.514;2024-01-27T09:42:02;3.70;91.00
56066;DHT22;75952;50.922;4.514;2024-01-27T09:44:31;3.80;90.90
56066;DHT22;75952;50.922;4.514;2024-01-27T09:46:57;4.00;91.00
56066;DHT22;75952;50.922;4.514;2024-01-27T09:49:25;4.10;90.20
56066;DHT22;75952;50.922;4.514;2024-01-27T09:51:51;4.20;90.10
56066;DHT22;75952;50.922;4.514;2024-01-27T09:54:21;4.30;90.20
56066;DHT22;75952;50.922;4.514;2024-01-27T09:56:47;4.50;90.20
56066;DHT22;75952;50.922;4.514;2024-01-27T09:59:14;4.50;89.30
56066;DHT22;75952;50.922;4.514;2024-01-27T10:01:43;4.70;88.30
56066;DHT22;75952;50.922;4.514;2024-01-27T10:04:09;4.80;87.60
56066;DHT22;75952;50.922;4.514;2024-01-27T10:06:38;5.00;86.70
56066;DHT22;75952;50.922;4.514;2024-01-27T10:09:04;5.00;86.50
56066;DHT22;75952;50.922;4.514;2024-01-27T10:11:30;5.20;86.00
56066;DHT22;75952;50.922;4.514;2024-01-27T10:13:58;5.40;85.20
56066;DHT22;75952;50.922;4.514;2024-01-27T10:16:28;5.50;84.30
56066;DHT22;75952;50.922;4.514;2024-01-27T10:19:01;5.60;84.50
56066;DHT22;75952;50.922;4.514;2024-01-27T10:21:27;5.70;85.60
56066;DHT22;75952;50.922;4.514;2024-01-27T10:23:55;5.70;83.60
56066;DHT22;75952;50.922;4.514;2024-01-27T10:26:23;5.80;83.80
56066;DHT22;75952;50.922;4.514;2024-01-27T10:28:55;5.80;84.10
56066;DHT22;75952;50.922;4.514;2024-01-27T10:31:30;6.10;83.60
56066;DHT22;75952;50.922;4.514;2024-01-27T10:33:58;6.10;82.90
56066;DHT22;75952;50.922;4.514;2024-01-27T10:36:37;6.20;82.50
56066;DHT22;75952;50.922;4.514;2024-01-27T10:39:17;6.30;81.90
56066;DHT22;75952;50.922;4.514;2024-01-27T10:41:45;6.60;82.50
56066;DHT22;75952;50.922;4.514;2024-01-27T10:44:14;6.70;79.70
56066;DHT22;75952;50.922;4.514;2024-01-27T10:46:44;6.60;80.40
56066;DHT22;75952;50.922;4.514;2024-01-27T10:49:13;6.60;79.80
56066;DHT22;75952;50.922;4.514;2024-01-27T10:51:44;6.60;81.00
56066;DHT22;75952;50.922;4.514;2024-01-27T10:54:14;6.70;81.10
56066;DHT22;75952;50.922;4.514;2024-01-27T10:56:44;6.70;78.10
56066;DHT22;75952;50.922;4.514;2024-01-27T10:59:12;6.70;79.40
56066;DHT22;75952;50.922;4.514;2024-01-27T11:01:41;6.80;78.10
56066;DHT22;75952;50.922;4.514;2024-01-27T11:04:09;6.80;77.90
56066;DHT22;75952;50.922;4.514;2024-01-27T11:06:38;6.80;77.30
56066;DHT22;75952;50.922;4.514;2024-01-27T11:09:07;6.80;78.20
56066;DHT22;75952;50.922;4.514;2024-01-27T11:11:34;6.80;76.40
56066;DHT22;75952;50.922;4.514;2024-01-27T11:14:00;7.00;77.00
56066;DHT22;75952;50.922;4.514;2024-01-27T11:16:26;7.10;76.70
56066;DHT22;75952;50.922;4.514;2024-01-27T11:18:53;7.10;74.80
56066;DHT22;75952;50.922;4.514;2024-01-27T11:21:19;7.20;75.40
56066;DHT22;75952;50.922;4.514;2024-01-27T11:23:45;7.30;76.10
56066;DHT22;75952;50.922;4.514;2024-01-27T11:26:20;7.50;74.00
56066;DHT22;75952;50.922;4.514;2024-01-27T11:28:47;7.60;73.30
56066;DHT22;75952;50.922;4.514;2024-01-27T11:31:17;7.50;73.20
56066;DHT22;75952;50.922;4.514;2024-01-27T11:33:47;7.60;73.00
56066;DHT22;75952;50.922;4.514;2024-01-27T11:36:23;7.70;72.40
56066;DHT22;75952;50.922;4.514;2024-01-27T11:38:50;7.70;72.40
56066;DHT22;75952;50.922;4.514;2024-01-27T11:41:28;7.80;71.20
56066;DHT22;75952;50.922;4.514;2024-01-27T11:43:58;7.70;71.80
56066;DHT22;75952;50.922;4.514;2024-01-27T11:46:27;7.70;71.60
56066;DHT22;75952;50.922;4.514;2024-01-27T11:48:53;8.00;73.70
56066;DHT22;75952;50.922;4.514;2024-01-27T11:51:19;8.10;71.60
56066;DHT22;75952;50.922;4.514;2024-01-27T11:53:45;8.20;70.40
56066;DHT22;75952;50.922;4.514;2024-01-27T11:56:11;8.30;69.90
56066;DHT22;75952;50.922;4.514;2024-01-27T11:58:46;8.30;70.20
56066;DHT22;75952;50.922;4.514;2024-01-27T12:01:15;8.30;68.40
56066;DHT22;75952;50.922;4.514;2024-01-27T12:03:47;8.40;68.10
56066;DHT22;75952;50.922;4.514;2024-01-27T12:06:14;8.30;68.60
56066;DHT22;75952;50.922;4.514;2024-01-27T12:08:41;8.40;68.80
56066;DHT22;75952;50.922;4.514;2024-01-27T12:11:16;8.20;68.20
56066;DHT22;75952;50.922;4.514;2024-01-27T12:13:42;8.20;69.40
56066;DHT22;75952;50.922;4.514;2024-01-27T12:16:08;8.10;69.20
56066;DHT22;75952;50.922;4.514;2024-01-27T12:18:35;8.10;68.80
56066;DHT22;75952;50.922;4.514;2024-01-27T12:21:00;8.10;69.40
56066;DHT22;75952;50.922;4.514;2024-01-27T12:23:29;8.00;70.30
56066;DHT22;75952;50.922;4.514;2024-01-27T12:25:55;8.00;70.20
56066;DHT22;75952;50.922;4.514;2024-01-27T12:28:22;8.20;68.60
56066;DHT22;75952;50.922;4.514;2024-01-27T12:30:50;8.30;68.50
56066;DHT22;75952;50.922;4.514;2024-01-27T12:33:18;8.40;68.40
56066;DHT22;75952;50.922;4.514;2024-01-27T12:35:48;8.30;68.10
56066;DHT22;75952;50.922;4.514;2024-01-27T12:38:14;8.30;68.50
56066;DHT22;75952;50.922;4.514;2024-01-27T12:40:40;8.40;68.30
56066;DHT22;75952;50.922;4.514;2024-01-27T12:43:06;8.40;68.20
56066;DHT22;75952;50.922;4.514;2024-01-27T12:45:31;8.50;68.00
56066;DHT22;75952;50.922;4.514;2024-01-27T12:48:00;8.50;67.60
56066;DHT22;75952;50.922;4.514;2024-01-27T12:50:26;8.50;66.50
56066;DHT22;75952;50.922;4.514;2024-01-27T12:52:52;8.40;67.70
56066;DHT22;75952;50.922;4.514;2024-01-27T12:55:17;8.40;67.70
56066;DHT22;75952;50.922;4.514;2024-01-27T12:57:44;8.40;66.70
56066;DHT22;75952;50.922;4.514;2024-01-27T13:00:10;8.50;67.20
56066;DHT22;75952;50.922;4.514;2024-01-27T13:02:36;8.50;66.80
56066;DHT22;75952;50.922;4.514;2024-01-27T13:05:08;8.50;66.20
56066;DHT22;75952;50.922;4.514;2024-01-27T13:07:35;8.60;65.80
56066;DHT22;75952;50.922;4.514;2024-01-27T13:10:03;8.60;66.70
56066;DHT22;75952;50.922;4.514;2024-01-27T13:12:29;8.70;67.40
56066;DHT22;75952;50.922;4.514;2024-01-27T13:14:56;8.80;65.80
56066;DHT22;75952;50.922;4.514;2024-01-27T13:17:22;8.80;65.40
56066;DHT22;75952;50.922;4.514;2024-01-27T13:19:52;8.70;65.00
56066;DHT22;75952;50.922;4.514;2024-01-27T13:22:20;8.80;65.70
56066;DHT22;75952;50.922;4.514;2024-01-27T13:24:49;8.80;64.40
56066;DHT22;75952;50.922;4.514;2024-01-27T13:27:17;8.70;65.40
56066;DHT22;75952;50.922;4.514;2024-01-27T13:29:45;9.00;64.90
56066;DHT22;75952;50.922;4.514;2024-01-27T13:32:11;8.90;63.70
56066;DHT22;75952;50.922;4.514;2024-01-27T13:34:39;9.10;64.40
56066;DHT22;75952;50.922;4.514;2024-01-27T13:37:05;9.00;62.90
56066;DHT22;75952;50.922;4.514;2024-01-27T13:39:31;9.00;63.70
56066;DHT22;75952;50.922;4.514;2024-01-27T13:41:58;9.20;63.50
56066;DHT22;75952;50.922;4.514;2024-01-27T13:44:25;9.10;61.00
56066;DHT22;75952;50.922;4.514;2024-01-27T13:46:50;9.10;61.40
56066;DHT22;75952;50.922;4.514;2024-01-27T13:49:19;9.10;62.80
56066;DHT22;75952;50.922;4.514;2024-01-27T13:51:45;9.10;60.70
56066;DHT22;75952;50.922;4.514;2024-01-27T13:54:11;9.20;60.40
56066;DHT22;75952;50.922;4.514;2024-01-27T13:56:39;9.20;60.70
56066;DHT22;75952;50.922;4.514;2024-01-27T13:59:05;9.20;59.50
56066;DHT22;75952;50.922;4.514;2024-01-27T14:01:31;9.20;59.70
56066;DHT22;75952;50.922;4.514;2024-01-27T14:03:58;9.30;57.70
56066;DHT22;75952;50.922;4.514;2024-01-27T14:06:23;9.40;58.50
56066;DHT22;75952;50.922;4.514;2024-01-27T14:08:49;9.40;58.50
56066;DHT22;75952;50.922;4.514;2024-01-27T14:11:15;9.60;58.60
56066;DHT22;75952;50.922;4.514;2024-01-27T14:13:43;9.40;57.10
56066;DHT22;75952;50.922;4.514;2024-01-27T14:16:08;9.40;58.00
56066;DHT22;75952;50.922;4.514;2024-01-27T14:18:34;9.30;57.80
56066;DHT22;75952;50.922;4.514;2024-01-27T14:21:00;9.50;58.60
56066;DHT22;75952;50.922;4.514;2024-01-27T14:23:30;9.70;57.10
56066;DHT22;75952;50.922;4.514;2024-01-27T14:25:59;9.60;56.80
56066;DHT22;75952;50.922;4.514;2024-01-27T14:28:30;9.60;56.10
56066;DHT22;75952;50.922;4.514;2024-01-27T14:30:55;9.60;56.40
56066;DHT22;75952;50.922;4.514;2024-01-27T14:33:21;9.60;57.90
56066;DHT22;75952;50.922;4.514;2024-01-27T14:35:48;9.60;57.00
56066;DHT22;75952;50.922;4.514;2024-01-27T14:38:14;9.80;57.00
56066;DHT22;75952;50.922;4.514;2024-01-27T14:40:40;9.90;57.40
56066;DHT22;75952;50.922;4.514;2024-01-27T14:43:06;10.00;56.90
56066;DHT22;75952;50.922;4.514;2024-01-27T14:45:37;10.00;56.50
56066;DHT22;75952;50.922;4.514;2024-01-27T14:48:04;10.10;55.70
56066;DHT22;75952;50.922;4.514;2024-01-27T14:50:30;10.00;56.50
56066;DHT22;75952;50.922;4.514;2024-01-27T14:52:56;10.00;56.30
56066;DHT22;75952;50.922;4.514;2024-01-27T14:55:22;9.90;55.30
56066;DHT22;75952;50.922;4.514;2024-01-27T14:57:51;9.80;55.90
56066;DHT22;75952;50.922;4.514;2024-01-27T15:00:17;9.90;56.80
56066;DHT22;75952;50.922;4.514;2024-01-27T15:02:45;9.80;57.90
56066;DHT22;75952;50.922;4.514;2024-01-27T15:05:11;9.80;57.30
56066;DHT22;75952;50.922;4.514;2024-01-27T15:07:36;9.60;57.70
56066;DHT22;75952;50.922;4.514;2024-01-27T15:10:08;9.50;59.10
56066;DHT22;75952;50.922;4.514;2024-01-27T15:12:34;9.50;58.70
56066;DHT22;75952;50.922;4.514;2024-01-27T15:15:00;9.40;58.40
56066;DHT22;75952;50.922;4.514;2024-01-27T15:17:26;9.40;59.00
56066;DHT22;75952;50.922;4.514;2024-01-27T15:19:51;9.30;59.20
56066;DHT22;75952;50.922;4.514;2024-01-27T15:22:17;9.20;60.80
56066;DHT22;75952;50.922;4.514;2024-01-27T15:24:44;9.00;61.60
56066;DHT22;75952;50.922;4.514;2024-01-27T15:27:10;8.90;61.30
56066;DHT22;75952;50.922;4.514;2024-01-27T15:29:35;8.70;61.10
56066;DHT22;75952;50.922;4.514;2024-01-27T15:32:03;8.70;62.30
56066;DHT22;75952;50.922;4.514;2024-01-27T15:34:29;8.60;63.00
56066;DHT22;75952;50.922;4.514;2024-01-27T15:36:57;8.60;63.00
56066;DHT22;75952;50.922;4.514;2024-01-27T15:39:23;8.50;63.30
56066;DHT22;75952;50.922;4.514;2024-01-27T15:41:51;8.50;62.90
56066;DHT22;75952;50.922;4.514;2024-01-27T15:44:19;8.30;64.20